Kingman, AZ (86401)

3:21 PM MST on October 25, 2014 (GMT -0700)
Southeast Kingman | Change Station
CLOSE
Current Station
Personal Weather Station
Location: Kingman, AZ
Elevation: 3584 ft
Nearby Weather Stations

Elev 3584 ft 35.20 °N, 114.00 °W | Updated 4 minutes ago

Clear
Clear
79.9 °F
Feels Like 79 °F
N
5.0
Wind Variable Wind from SSE
Gusts 5.0 mph

Today
High -- | Low -- °F
--% Chance of Precip.
Yesterday
High -- | Low -- °F
Precip. -- in
6:51 AM 5:48 PM
Waxing Crescent, 4% visible
Pressure 29.89 in
Visibility -9999.0 miles
Clouds Clear
Heat Index 79 °F
Dew Point 47 °F
Humidity 31%
Rainfall 0.00 in
Snow Depth Not available.
UV 3 out of 12
Pollen 5.00 out of 12
Air Quality Not available.
Flu Activity No Activity
METAR KIGM 252151Z AUTO 21013KT CLR 28/06 A3008 RMK AO2 SLP122 T02780061

More Conditions Fewer Conditions

Pressure 29.89 in
Visibility -9999.0 miles
Clouds Clear
Heat Index 79 °F
Dew Point 47 °F
Humidity 31%
Rainfall 0.00 in
Snow Depth Not available.
UV 3 out of 12
Pollen 5.00 out of 12
Air Quality Not available.
Flu Activity No Activity
METAR KIGM 252151Z AUTO 21013KT CLR 28/06 A3008 RMK AO2 SLP122 T02780061

More Conditions Fewer Conditions

10-Day Weather Forecast

Almanac

Astronomy

Oct. 25, 2014 Rise Set
Actual Time 6:51 AM MST 5:48 PM MST
Civil Twilight 6:25 AM MST 6:14 PM MST
Nautical Twilight 5:55 AM MST 6:44 PM MST
Astronomical Twilight 5:25 AM MST 7:13 PM MST
Moon 8:31 AM MST 7:18 PM MST
Length of Visible Light 11h 49m
Length of Day
10h 57m
Tomorrow will be 2m 1s shorter.
Waxing Crescent, 4% of the Moon is Illuminated
Today
Waxing Crescent
Oct 30
First Quarter
Nov 6
Full
Nov 14
Last Quarter
Nov 22
New

Today's Extremes

State Highs State Lows

Community

WunderPhotos

Upload Photos

1,765,015 photos uploaded!

Nearby

Snow Depth

Station Depth Elevation
White Horse Lake 0 in 7180 ft
Beaver Head 0 in 7990 ft

Earthquake Activity

City Distance Mag. Time & Date
No recent earthquake activity has been reported nearby.
Minimum magnitude displayed is 2.5.

Coastal Water Temperatures

Place Temperature
No Stations Reporting

Nearby Weather Stations